Dar Mlodziezy — SQLZ — position and weather

sailwx.info

Track history (hours):
 
Tides and Currents Weather Stations Pressure Air Temp Water Temp Dewpoint Dewpoint Depression Visibility Wind Speed Wind Dir Waves Ship Positions

Dar Mlodziezy

Training ship for Gdynia Maritime University, Poland.

Ship's website: http://www.am.gdynia.pl/armator/darmlodziezy.php

Last reported at 2017-Apr-27 07:00 UTC. Time now 2017-Apr-27 07:11 UTC.
Position N 54°50' E 014°50'.

Length 95 m; beam 14 m.

Type: Sailing vessel. MMSI: 261148000.

Date/timePositionNaut miles runAvg speedWind from/ knotsBaromVisibWave heightAir tempDewpointWater temp
2017-Apr-27 07:00N 54°50' E 014°50'0 0.5
2017-Apr-27 06:30N 54°50' E 014°50'1 1.1
2017-Apr-27 06:00N 54°51' E 014°49'3 5.5
2017-Apr-27 05:30N 54°51' E 014°44'3 6.4
2017-Apr-27 05:00N 54°52' E 014°39'3 6.5
2017-Apr-27 04:30N 54°53' E 014°33'3 6.9
2017-Apr-27 04:00N 54°54' E 014°28'3 6.9
2017-Apr-27 03:30N 54°55' E 014°22'3 6.7
2017-Apr-27 03:00N 54°56' E 014°17'3 6.7
2017-Apr-27 02:30N 54°57' E 014°11'3 6.8
2017-Apr-27 02:00N 54°58' E 014°05'3 6.6
2017-Apr-27 01:30N 54°59' E 013°60'3 6.6
2017-Apr-27 01:00N 55°00' E 013°54'3 6.3
2017-Apr-27 00:29N 55°01' E 013°49'3 6.3
2017-Apr-27 00:00N 55°02' E 013°44'3 6.3
2017-Apr-26 23:30N 55°04' E 013°39'3 6.4
2017-Apr-26 22:58N 55°05' E 013°33'3 6.3
2017-Apr-26 22:29N 55°05' E 013°28'31 3.7
2017-Apr-26 14:01N 55°18' E 012°39'11 6.9
2017-Apr-26 12:24N 55°29' E 012°41'2 6.3
2017-Apr-26 12:00N 55°32' E 012°42'3 6.4
2017-Apr-26 11:30N 55°35' E 012°42'3 6.5
2017-Apr-26 11:00N 55°38' E 012°42'3 6.7
2017-Apr-26 10:30N 55°41' E 012°41'3 6.8
2017-Apr-26 10:00N 55°45' E 012°42'3 6.3
2017-Apr-26 09:30N 55°48' E 012°42'2 4.9
2017-Apr-26 09:00N 55°50' E 012°41'3 5.1
2017-Apr-26 08:30N 55°53' E 012°39'2 4.8
2017-Apr-26 08:00N 55°55' E 012°38'2 4.9
2017-Apr-26 07:30N 55°57' E 012°40'2 4.9
2017-Apr-26 07:00N 55°60' E 012°40'3 6.3
2017-Apr-26 06:30N 56°03' E 012°39'3 6.3
2017-Apr-26 06:00N 56°05' E 012°35'3 5.9
2017-Apr-26 05:30N 56°07' E 012°30'3 5.0
2017-Apr-26 04:59N 56°08' E 012°26'70 6.3
2017-Apr-25 17:59N 57°12' E 011°35'3 7.0
2017-Apr-25 17:30N 57°15' E 011°33'4 7.7
2017-Apr-25 17:00N 57°19' E 011°31'3 6.6
2017-Apr-25 16:30N 57°22' E 011°29'3 6.3
2017-Apr-25 16:00N 57°25' E 011°26'3 6.2
2017-Apr-25 15:30N 57°28' E 011°24'3 6.6
2017-Apr-25 15:00N 57°30' E 011°20'4 7.1
2017-Apr-25 14:30N 57°32' E 011°15'7 7.3
2017-Apr-25 13:30N 57°38' E 011°06'3 6.6
2017-Apr-25 13:00N 57°41' E 011°03'3 6.4
2017-Apr-25 12:30N 57°43' E 010°59'3 6.8
2017-Apr-25 12:00N 57°46' E 010°54'4 7.5
2017-Apr-25 11:30N 57°48' E 010°49'4 7.1
2017-Apr-25 11:00N 57°51' E 010°45'4 7.8
2017-Apr-25 10:30N 57°54' E 010°40'370 7.6
2017-Apr-23 09:37N 52°55' E 004°18'87 4.8
2017-Apr-22 15:37N 51°35' E 003°24'1 6.8
2017-Apr-22 15:29N 51°34' E 003°25'3 6.9
2017-Apr-22 15:00N 51°31' E 003°27'4 7.8
2017-Apr-22 14:28N 51°28' E 003°31'20 6.6
2017-Apr-22 11:28N 51°24' E 004°02'3 6.4
2017-Apr-22 11:00N 51°22' E 004°07'5 4.8
2017-Apr-22 09:59N 51°21' E 004°14'3 6.3
2017-Apr-22 09:30N 51°19' E 004°16'3 5.3
2017-Apr-22 09:00N 51°16' E 004°19'2 4.7
2017-Apr-22 08:30N 51°14' E 004°21'2 4.4
2017-Apr-22 08:00N 51°13' E 004°24'0 0.3
2017-Apr-22 07:28N 51°13' E 004°24'0 0.0
2017-Apr-22 06:59N 51°13' E 004°24'0 0.0
2017-Apr-22 06:29N 51°13' E 004°24'0 0.0
2017-Apr-22 05:59N 51°13' E 004°24'0 0.0
2017-Apr-22 05:29N 51°13' E 004°24'0 0.0
2017-Apr-22 04:59N 51°13' E 004°24'0 0.0
2017-Apr-22 04:28N 51°13' E 004°24'0 0.0
2017-Apr-22 03:58N 51°13' E 004°24'0 0.0
2017-Apr-22 03:28N 51°13' E 004°24'0 0.0
2017-Apr-22 02:58N 51°13' E 004°24'0 0.0
2017-Apr-22 02:31N 51°13' E 004°24'0 0.0
2017-Apr-22 02:00N 51°13' E 004°24'0 0.0
2017-Apr-22 01:27N 51°13' E 004°24'0 0.0
2017-Apr-22 01:00N 51°13' E 004°24'0 0.0
2017-Apr-22 00:30N 51°13' E 004°24'0 0.0
2017-Apr-21 23:59N 51°13' E 004°24'0 0.0
2017-Apr-21 23:26N 51°13' E 004°24'0 0.0
2017-Apr-21 22:59N 51°13' E 004°24'0 0.0
2017-Apr-21 22:29N 51°13' E 004°24'0 0.0
2017-Apr-21 21:59N 51°13' E 004°24'0 0.0
2017-Apr-21 21:28N 51°13' E 004°24'0 0.0
2017-Apr-21 20:58N 51°13' E 004°24'0 0.0
2017-Apr-21 20:28N 51°13' E 004°24'0 0.0
2017-Apr-21 19:55N 51°13' E 004°24'0 0.0
2017-Apr-21 19:31N 51°13' E 004°24'0 0.0
2017-Apr-21 19:00N 51°13' E 004°24'0 0.0
2017-Apr-21 18:30N 51°13' E 004°24'0 0.0
2017-Apr-21 17:54N 51°13' E 004°24'0 0.0
2017-Apr-21 17:30N 51°13' E 004°24'0 0.0
2017-Apr-21 16:59N 51°13' E 004°24'0 0.0
2017-Apr-21 16:29N 51°13' E 004°24'0 0.0
2017-Apr-21 15:59N 51°13' E 004°24'0 0.0
2017-Apr-21 15:26N 51°13' E 004°24'0 0.0
2017-Apr-21 14:59N 51°13' E 004°24'0 0.0
2017-Apr-21 14:30N 51°13' E 004°24'0 0.0
2017-Apr-21 13:28N 51°13' E 004°24'0 0.0
2017-Apr-21 12:58N 51°13' E 004°24'0 0.0
2017-Apr-21 12:31N 51°13' E 004°24'0 0.0
2017-Apr-21 11:57N 51°13' E 004°24'0 0.0
2017-Apr-21 11:30N 51°13' E 004°24'0 0.0
2017-Apr-21 11:00N 51°13' E 004°24'0 0.0
2017-Apr-21 10:27N 51°13' E 004°24'0 0.0
2017-Apr-21 09:59N 51°13' E 004°24'0 0.0
2017-Apr-21 09:29N 51°13' E 004°24'0 0.0
2017-Apr-21 08:59N 51°13' E 004°24'0 0.0
2017-Apr-21 08:29N 51°13' E 004°24'0 0.0
2017-Apr-21 07:49N 51°13' E 004°24'0 0.0
2017-Apr-21 07:28N 51°13' E 004°24'0 0.0
2017-Apr-21 07:00N 51°13' E 004°24'0 0.2
2017-Apr-21 06:30N 51°13' E 004°24'1 2.3
2017-Apr-21 06:00N 51°14' E 004°23'2 4.2
2017-Apr-21 05:30N 51°15' E 004°20'1 3.0
2017-Apr-21 05:00N 51°16' E 004°19'2 3.1
2017-Apr-21 04:30N 51°18' E 004°17'2 4.2
2017-Apr-21 04:00N 51°20' E 004°16'2 4.5
2017-Apr-21 03:30N 51°21' E 004°14'3 5.9
2017-Apr-21 03:00N 51°24' E 004°11'3 6.5
2017-Apr-21 02:30N 51°22' E 004°07'3 6.0
2017-Apr-21 02:00N 51°23' E 004°02'3 5.6
2017-Apr-21 01:30N 51°26' E 004°01'2 5.1
2017-Apr-21 01:00N 51°25' E 003°58'3 5.8
2017-Apr-21 00:30N 51°22' E 003°55'3 5.5
2017-Apr-21 00:00N 51°21' E 003°51'3 5.6
2017-Apr-20 23:30N 51°21' E 003°47'3 6.0
2017-Apr-20 23:00N 51°23' E 003°43'3 6.0
2017-Apr-20 22:30N 51°26' E 003°41'3 6.0
2017-Apr-20 21:59N 51°26' E 003°36'3 6.6
2017-Apr-20 21:30N 51°25' E 003°31'4 8.0
2017-Apr-20 21:00N 51°24' E 003°25'4 8.7
2017-Apr-20 20:30N 51°24' E 003°18'5 9.2
2017-Apr-20 20:00N 51°23' E 003°11'5 9.4
2017-Apr-20 19:30N 51°22' E 003°03'5 9.1
2017-Apr-20 19:00N 51°22' E 002°56'5 9.1
2017-Apr-20 18:30N 51°22' E 002°49'4 7.8
2017-Apr-20 18:00N 51°22' E 002°43'4 7.8
2017-Apr-20 17:30N 51°21' E 002°37'2 3.1
2017-Apr-20 17:00N 51°20' E 002°35'0 0.1
2017-Apr-20 16:30N 51°20' E 002°35'0 0.1
2017-Apr-20 16:00N 51°20' E 002°35'0 0.0
2017-Apr-20 15:29N 51°20' E 002°35'0 0.1
2017-Apr-20 15:01N 51°20' E 002°35'0 0.0
2017-Apr-20 14:30N 51°20' E 002°35'0 0.1
2017-Apr-20 13:31N 51°20' E 002°35'0 0.1
2017-Apr-20 13:01N 51°20' E 002°35'0 0.0
2017-Apr-20 12:30N 51°20' E 002°35'0 0.0
2017-Apr-20 12:01N 51°20' E 002°35'0 0.2
2017-Apr-20 11:30N 51°20' E 002°35'0 0.1
2017-Apr-20 11:01N 51°20' E 002°35'0 0.0
2017-Apr-20 10:30N 51°20' E 002°35'0 0.0
2017-Apr-20 10:01N 51°20' E 002°35'0 0.0
2017-Apr-20 09:31N 51°20' E 002°35'0 0.0
2017-Apr-20 09:00N 51°20' E 002°35'0 0.0
2017-Apr-20 08:30N 51°20' E 002°35'0 0.0
2017-Apr-20 08:00N 51°20' E 002°35'0 0.0
2017-Apr-20 07:31N 51°20' E 002°35'0 0.0
2017-Apr-20 07:00N 51°20' E 002°35'0 0.0
2017-Apr-20 06:31N 51°20' E 002°35'0 0.0
2017-Apr-20 06:01N 51°20' E 002°35'0 0.0
2017-Apr-20 05:30N 51°20' E 002°35'0 0.0
2017-Apr-20 05:00N 51°20' E 002°35'1 1.5
2017-Apr-20 04:30N 51°21' E 002°34'3 5.1
2017-Apr-20 04:00N 51°22' E 002°30'2 3.8
2017-Apr-20 03:30N 51°21' E 002°27'2 3.4
2017-Apr-20 03:00N 51°20' E 002°25'2 3.1
2017-Apr-20 02:31N 51°20' E 002°23'1 2.8
2017-Apr-20 02:00N 51°19' E 002°21'1 2.6
2017-Apr-20 01:29N 51°18' E 002°19'1 2.6
2017-Apr-20 01:00N 51°18' E 002°17'1 2.5
2017-Apr-20 00:30N 51°17' E 002°16'1 2.4
2017-Apr-19 23:59N 51°16' E 002°14'1 2.6
2017-Apr-19 23:28N 51°16' E 002°12'1 2.7
2017-Apr-19 22:59N 51°15' E 002°10'1 2.8
2017-Apr-19 22:29N 51°14' E 002°08'1 2.8
2017-Apr-19 21:59N 51°14' E 002°06'1 3.0
2017-Apr-19 21:30N 51°13' E 002°04'2 3.1
2017-Apr-19 21:00N 51°12' E 002°02'2 3.1
2017-Apr-19 20:30N 51°11' E 002°00'2 3.1
2017-Apr-19 20:01N 51°10' E 001°58'2 3.2
2017-Apr-19 19:30N 51°09' E 001°56'2 3.4
2017-Apr-19 19:00N 51°09' E 001°54'2 3.4
2017-Apr-19 18:30N 51°08' E 001°51'2 3.5
2017-Apr-19 18:00N 51°07' E 001°49'2 3.6
2017-Apr-19 17:31N 51°06' E 001°47'2 3.6
2017-Apr-19 17:00N 51°04' E 001°45'2 3.6
2017-Apr-19 16:30N 51°03' E 001°43'2 3.8
2017-Apr-19 16:00N 51°02' E 001°41'2 3.7
2017-Apr-19 15:30N 51°00' E 001°39'2 3.8
2017-Apr-19 15:00N 50°59' E 001°37'2 3.7
2017-Apr-19 14:30N 50°57' E 001°35'4 3.6
2017-Apr-19 13:31N 50°55' E 001°31'71 3.0
2017-Apr-18 13:52N 50°19' W 000°05'2 4.8
2017-Apr-18 13:30N 50°19' W 000°08'  
Track history (hours):
 
Tides and Currents Weather Stations Pressure Air Temp Water Temp Dewpoint Dewpoint Depression Visibility Wind Speed Wind Dir Waves Ship Positions

Dar Mlodziezy

Training ship for Gdynia Maritime University, Poland.

Ship's website: http://www.am.gdynia.pl/armator/darmlodziezy.php

Last reported at 2017-Apr-27 07:00 UTC. Time now 2017-Apr-27 07:11 UTC.
Position N 54°50' E 014°50'.

Length 95 m; beam 14 m.

Type: Sailing vessel. MMSI: 261148000.

Date/timePositionNaut miles runAvg speedWind from/ knotsBaromVisibWave heightAir tempDewpointWater temp
2017-Apr-27 07:00N 54°50' E 014°50'0 0.5
2017-Apr-27 06:30N 54°50' E 014°50'1 1.1
2017-Apr-27 06:00N 54°51' E 014°49'3 5.5
2017-Apr-27 05:30N 54°51' E 014°44'3 6.4
2017-Apr-27 05:00N 54°52' E 014°39'3 6.5
2017-Apr-27 04:30N 54°53' E 014°33'3 6.9
2017-Apr-27 04:00N 54°54' E 014°28'3 6.9
2017-Apr-27 03:30N 54°55' E 014°22'3 6.7
2017-Apr-27 03:00N 54°56' E 014°17'3 6.7
2017-Apr-27 02:30N 54°57' E 014°11'3 6.8
2017-Apr-27 02:00N 54°58' E 014°05'3 6.6
2017-Apr-27 01:30N 54°59' E 013°60'3 6.6
2017-Apr-27 01:00N 55°00' E 013°54'3 6.3
2017-Apr-27 00:29N 55°01' E 013°49'3 6.3
2017-Apr-27 00:00N 55°02' E 013°44'3 6.3
2017-Apr-26 23:30N 55°04' E 013°39'3 6.4
2017-Apr-26 22:58N 55°05' E 013°33'3 6.3
2017-Apr-26 22:29N 55°05' E 013°28'31 3.7
2017-Apr-26 14:01N 55°18' E 012°39'11 6.9
2017-Apr-26 12:24N 55°29' E 012°41'2 6.3
2017-Apr-26 12:00N 55°32' E 012°42'3 6.4
2017-Apr-26 11:30N 55°35' E 012°42'3 6.5
2017-Apr-26 11:00N 55°38' E 012°42'3 6.7
2017-Apr-26 10:30N 55°41' E 012°41'3 6.8
2017-Apr-26 10:00N 55°45' E 012°42'3 6.3
2017-Apr-26 09:30N 55°48' E 012°42'2 4.9
2017-Apr-26 09:00N 55°50' E 012°41'3 5.1
2017-Apr-26 08:30N 55°53' E 012°39'2 4.8
2017-Apr-26 08:00N 55°55' E 012°38'2 4.9
2017-Apr-26 07:30N 55°57' E 012°40'2 4.9
2017-Apr-26 07:00N 55°60' E 012°40'3 6.3
2017-Apr-26 06:30N 56°03' E 012°39'3 6.3
2017-Apr-26 06:00N 56°05' E 012°35'3 5.9
2017-Apr-26 05:30N 56°07' E 012°30'3 5.0
2017-Apr-26 04:59N 56°08' E 012°26'70 6.3
2017-Apr-25 17:59N 57°12' E 011°35'3 7.0
2017-Apr-25 17:30N 57°15' E 011°33'4 7.7
2017-Apr-25 17:00N 57°19' E 011°31'3 6.6
2017-Apr-25 16:30N 57°22' E 011°29'3 6.3
2017-Apr-25 16:00N 57°25' E 011°26'3 6.2
2017-Apr-25 15:30N 57°28' E 011°24'3 6.6
2017-Apr-25 15:00N 57°30' E 011°20'4 7.1
2017-Apr-25 14:30N 57°32' E 011°15'7 7.3
2017-Apr-25 13:30N 57°38' E 011°06'3 6.6
2017-Apr-25 13:00N 57°41' E 011°03'3 6.4
2017-Apr-25 12:30N 57°43' E 010°59'3 6.8
2017-Apr-25 12:00N 57°46' E 010°54'4 7.5
2017-Apr-25 11:30N 57°48' E 010°49'4 7.1
2017-Apr-25 11:00N 57°51' E 010°45'4 7.8
2017-Apr-25 10:30N 57°54' E 010°40'370 7.6
2017-Apr-23 09:37N 52°55' E 004°18'87 4.8
2017-Apr-22 15:37N 51°35' E 003°24'1 6.8
2017-Apr-22 15:29N 51°34' E 003°25'3 6.9
2017-Apr-22 15:00N 51°31' E 003°27'4 7.8
2017-Apr-22 14:28N 51°28' E 003°31'20 6.6
2017-Apr-22 11:28N 51°24' E 004°02'3 6.4
2017-Apr-22 11:00N 51°22' E 004°07'5 4.8
2017-Apr-22 09:59N 51°21' E 004°14'3 6.3
2017-Apr-22 09:30N 51°19' E 004°16'3 5.3
2017-Apr-22 09:00N 51°16' E 004°19'2 4.7
2017-Apr-22 08:30N 51°14' E 004°21'2 4.4
2017-Apr-22 08:00N 51°13' E 004°24'0 0.3
2017-Apr-22 07:28N 51°13' E 004°24'0 0.0
2017-Apr-22 06:59N 51°13' E 004°24'0 0.0
2017-Apr-22 06:29N 51°13' E 004°24'0 0.0
2017-Apr-22 05:59N 51°13' E 004°24'0 0.0
2017-Apr-22 05:29N 51°13' E 004°24'0 0.0
2017-Apr-22 04:59N 51°13' E 004°24'0 0.0
2017-Apr-22 04:28N 51°13' E 004°24'0 0.0
2017-Apr-22 03:58N 51°13' E 004°24'0 0.0
2017-Apr-22 03:28N 51°13' E 004°24'0 0.0
2017-Apr-22 02:58N 51°13' E 004°24'0 0.0
2017-Apr-22 02:31N 51°13' E 004°24'0 0.0
2017-Apr-22 02:00N 51°13' E 004°24'0 0.0
2017-Apr-22 01:27N 51°13' E 004°24'0 0.0
2017-Apr-22 01:00N 51°13' E 004°24'0 0.0
2017-Apr-22 00:30N 51°13' E 004°24'0 0.0
2017-Apr-21 23:59N 51°13' E 004°24'0 0.0
2017-Apr-21 23:26N 51°13' E 004°24'0 0.0
2017-Apr-21 22:59N 51°13' E 004°24'0 0.0
2017-Apr-21 22:29N 51°13' E 004°24'0 0.0
2017-Apr-21 21:59N 51°13' E 004°24'0 0.0
2017-Apr-21 21:28N 51°13' E 004°24'0 0.0
2017-Apr-21 20:58N 51°13' E 004°24'0 0.0
2017-Apr-21 20:28N 51°13' E 004°24'0 0.0
2017-Apr-21 19:55N 51°13' E 004°24'0 0.0
2017-Apr-21 19:31N 51°13' E 004°24'0 0.0
2017-Apr-21 19:00N 51°13' E 004°24'0 0.0
2017-Apr-21 18:30N 51°13' E 004°24'0 0.0
2017-Apr-21 17:54N 51°13' E 004°24'0 0.0
2017-Apr-21 17:30N 51°13' E 004°24'0 0.0
2017-Apr-21 16:59N 51°13' E 004°24'0 0.0
2017-Apr-21 16:29N 51°13' E 004°24'0 0.0
2017-Apr-21 15:59N 51°13' E 004°24'0 0.0
2017-Apr-21 15:26N 51°13' E 004°24'0 0.0
2017-Apr-21 14:59N 51°13' E 004°24'0 0.0
2017-Apr-21 14:30N 51°13' E 004°24'0 0.0
2017-Apr-21 13:28N 51°13' E 004°24'0 0.0
2017-Apr-21 12:58N 51°13' E 004°24'0 0.0
2017-Apr-21 12:31N 51°13' E 004°24'0 0.0
2017-Apr-21 11:57N 51°13' E 004°24'0 0.0
2017-Apr-21 11:30N 51°13' E 004°24'0 0.0
2017-Apr-21 11:00N 51°13' E 004°24'0 0.0
2017-Apr-21 10:27N 51°13' E 004°24'0 0.0
2017-Apr-21 09:59N 51°13' E 004°24'0 0.0
2017-Apr-21 09:29N 51°13' E 004°24'0 0.0
2017-Apr-21 08:59N 51°13' E 004°24'0 0.0
2017-Apr-21 08:29N 51°13' E 004°24'0 0.0
2017-Apr-21 07:49N 51°13' E 004°24'0 0.0
2017-Apr-21 07:28N 51°13' E 004°24'0 0.0
2017-Apr-21 07:00N 51°13' E 004°24'0 0.2
2017-Apr-21 06:30N 51°13' E 004°24'1 2.3
2017-Apr-21 06:00N 51°14' E 004°23'2 4.2
2017-Apr-21 05:30N 51°15' E 004°20'1 3.0
2017-Apr-21 05:00N 51°16' E 004°19'2 3.1
2017-Apr-21 04:30N 51°18' E 004°17'2 4.2
2017-Apr-21 04:00N 51°20' E 004°16'2 4.5
2017-Apr-21 03:30N 51°21' E 004°14'3 5.9
2017-Apr-21 03:00N 51°24' E 004°11'3 6.5
2017-Apr-21 02:30N 51°22' E 004°07'3 6.0
2017-Apr-21 02:00N 51°23' E 004°02'3 5.6
2017-Apr-21 01:30N 51°26' E 004°01'2 5.1
2017-Apr-21 01:00N 51°25' E 003°58'3 5.8
2017-Apr-21 00:30N 51°22' E 003°55'3 5.5
2017-Apr-21 00:00N 51°21' E 003°51'3 5.6
2017-Apr-20 23:30N 51°21' E 003°47'3 6.0
2017-Apr-20 23:00N 51°23' E 003°43'3 6.0
2017-Apr-20 22:30N 51°26' E 003°41'3 6.0
2017-Apr-20 21:59N 51°26' E 003°36'3 6.6
2017-Apr-20 21:30N 51°25' E 003°31'4 8.0
2017-Apr-20 21:00N 51°24' E 003°25'4 8.7
2017-Apr-20 20:30N 51°24' E 003°18'5 9.2
2017-Apr-20 20:00N 51°23' E 003°11'5 9.4
2017-Apr-20 19:30N 51°22' E 003°03'5 9.1
2017-Apr-20 19:00N 51°22' E 002°56'5 9.1
2017-Apr-20 18:30N 51°22' E 002°49'4 7.8
2017-Apr-20 18:00N 51°22' E 002°43'4 7.8
2017-Apr-20 17:30N 51°21' E 002°37'2 3.1
2017-Apr-20 17:00N 51°20' E 002°35'0 0.1
2017-Apr-20 16:30N 51°20' E 002°35'0 0.1
2017-Apr-20 16:00N 51°20' E 002°35'0 0.0
2017-Apr-20 15:29N 51°20' E 002°35'0 0.1
2017-Apr-20 15:01N 51°20' E 002°35'0 0.0
2017-Apr-20 14:30N 51°20' E 002°35'0 0.1
2017-Apr-20 13:31N 51°20' E 002°35'0 0.1
2017-Apr-20 13:01N 51°20' E 002°35'0 0.0
2017-Apr-20 12:30N 51°20' E 002°35'0 0.0
2017-Apr-20 12:01N 51°20' E 002°35'0 0.2
2017-Apr-20 11:30N 51°20' E 002°35'0 0.1
2017-Apr-20 11:01N 51°20' E 002°35'0 0.0
2017-Apr-20 10:30N 51°20' E 002°35'0 0.0
2017-Apr-20 10:01N 51°20' E 002°35'0 0.0
2017-Apr-20 09:31N 51°20' E 002°35'0 0.0
2017-Apr-20 09:00N 51°20' E 002°35'0 0.0
2017-Apr-20 08:30N 51°20' E 002°35'0 0.0
2017-Apr-20 08:00N 51°20' E 002°35'0 0.0
2017-Apr-20 07:31N 51°20' E 002°35'0 0.0
2017-Apr-20 07:00N 51°20' E 002°35'0 0.0
2017-Apr-20 06:31N 51°20' E 002°35'0 0.0
2017-Apr-20 06:01N 51°20' E 002°35'0 0.0
2017-Apr-20 05:30N 51°20' E 002°35'0 0.0
2017-Apr-20 05:00N 51°20' E 002°35'1 1.5
2017-Apr-20 04:30N 51°21' E 002°34'3 5.1
2017-Apr-20 04:00N 51°22' E 002°30'2 3.8
2017-Apr-20 03:30N 51°21' E 002°27'2 3.4
2017-Apr-20 03:00N 51°20' E 002°25'2 3.1
2017-Apr-20 02:31N 51°20' E 002°23'1 2.8
2017-Apr-20 02:00N 51°19' E 002°21'1 2.6
2017-Apr-20 01:29N 51°18' E 002°19'1 2.6
2017-Apr-20 01:00N 51°18' E 002°17'1 2.5
2017-Apr-20 00:30N 51°17' E 002°16'1 2.4
2017-Apr-19 23:59N 51°16' E 002°14'1 2.6
2017-Apr-19 23:28N 51°16' E 002°12'1 2.7
2017-Apr-19 22:59N 51°15' E 002°10'1 2.8
2017-Apr-19 22:29N 51°14' E 002°08'1 2.8
2017-Apr-19 21:59N 51°14' E 002°06'1 3.0
2017-Apr-19 21:30N 51°13' E 002°04'2 3.1
2017-Apr-19 21:00N 51°12' E 002°02'2 3.1
2017-Apr-19 20:30N 51°11' E 002°00'2 3.1
2017-Apr-19 20:01N 51°10' E 001°58'2 3.2
2017-Apr-19 19:30N 51°09' E 001°56'2 3.4
2017-Apr-19 19:00N 51°09' E 001°54'2 3.4
2017-Apr-19 18:30N 51°08' E 001°51'2 3.5
2017-Apr-19 18:00N 51°07' E 001°49'2 3.6
2017-Apr-19 17:31N 51°06' E 001°47'2 3.6
2017-Apr-19 17:00N 51°04' E 001°45'2 3.6
2017-Apr-19 16:30N 51°03' E 001°43'2 3.8
2017-Apr-19 16:00N 51°02' E 001°41'2 3.7
2017-Apr-19 15:30N 51°00' E 001°39'2 3.8
2017-Apr-19 15:00N 50°59' E 001°37'2 3.7
2017-Apr-19 14:30N 50°57' E 001°35'4 3.6
2017-Apr-19 13:31N 50°55' E 001°31'71 3.0
2017-Apr-18 13:52N 50°19' W 000°05'2 4.8
2017-Apr-18 13:30N 50°19' W 000°08'  

Dump ship's entire track history